createdAt,value
2022-12-18T00:02:13.833Z,51.50
2022-12-18T00:04:41.296Z,41.60
2022-12-18T00:07:09.864Z,38.50
2022-12-18T00:09:39.713Z,37.70
2022-12-18T00:14:45.923Z,37.40
2022-12-18T00:17:12.917Z,37.50
2022-12-18T00:19:40.192Z,37.30
2022-12-18T00:22:07.420Z,39.10
2022-12-18T00:24:35.773Z,40.00
2022-12-18T00:27:02.729Z,43.40
2022-12-18T00:29:29.867Z,40.40
2022-12-18T00:31:56.811Z,41.10
2022-12-18T00:34:23.955Z,41.30
2022-12-18T00:36:51.116Z,37.60
2022-12-18T00:39:18.458Z,34.50
2022-12-18T00:42:05.462Z,33.00
2022-12-18T00:44:32.448Z,36.80
2022-12-18T00:47:00.290Z,36.60
2022-12-18T00:49:27.503Z,34.40
2022-12-18T00:51:54.682Z,31.60
2022-12-18T00:54:22.047Z,31.00
2022-12-18T00:56:50.519Z,29.90
2022-12-18T00:59:18.388Z,29.90
2022-12-18T01:01:45.926Z,31.20
2022-12-18T01:04:13.112Z,31.00
2022-12-18T01:06:40.764Z,32.50
2022-12-18T01:09:07.864Z,34.60
2022-12-18T01:11:35.300Z,35.20
2022-12-18T01:14:03.757Z,32.30
2022-12-18T01:16:31.038Z,34.00
2022-12-18T01:18:58.784Z,35.60
2022-12-18T01:21:26.500Z,35.80
2022-12-18T01:23:54.840Z,34.50
2022-12-18T01:26:22.456Z,34.60
2022-12-18T01:28:49.515Z,37.00
2022-12-18T01:31:21.258Z,35.10
2022-12-18T01:33:49.838Z,34.90
2022-12-18T01:36:19.729Z,38.50
2022-12-18T01:38:47.333Z,37.00
2022-12-18T01:41:19.503Z,39.00
2022-12-18T01:43:51.408Z,39.00
2022-12-18T01:46:22.036Z,42.60
2022-12-18T01:48:51.712Z,41.00
2022-12-18T01:51:19.070Z,44.20
2022-12-18T01:53:47.762Z,41.10
2022-12-18T01:56:17.171Z,38.20
2022-12-18T01:58:52.575Z,39.80
2022-12-18T02:01:22.836Z,35.00
2022-12-18T02:03:50.207Z,40.00
2022-12-18T02:06:22.672Z,36.30
2022-12-18T02:09:00.128Z,35.30
2022-12-18T02:11:38.575Z,38.70
2022-12-18T02:14:19.245Z,32.90
2022-12-18T02:16:53.671Z,32.30
2022-12-18T02:19:42.206Z,26.80
2022-12-18T02:22:27.425Z,28.50
2022-12-18T02:25:02.624Z,31.50
2022-12-18T02:27:33.257Z,33.50
2022-12-18T02:30:02.359Z,34.20
2022-12-18T02:32:33.681Z,37.60
2022-12-18T02:35:03.656Z,40.40
2022-12-18T02:37:33.389Z,37.20
2022-12-18T02:40:01.456Z,37.00
2022-12-18T02:42:30.811Z,35.10
2022-12-18T02:44:58.223Z,33.40
2022-12-18T02:47:29.420Z,33.50
2022-12-18T02:50:04.495Z,30.70
2022-12-18T02:52:39.941Z,26.80
2022-12-18T02:55:20.528Z,27.90
2022-12-18T02:57:54.900Z,33.30
2022-12-18T03:00:25.603Z,24.70
2022-12-18T03:02:58.283Z,33.10
2022-12-18T03:05:32.667Z,72.10
2022-12-18T03:08:05.216Z,62.50
2022-12-18T03:10:36.947Z,39.50
2022-12-18T03:13:09.398Z,29.90
2022-12-18T03:15:41.133Z,23.70
2022-12-18T03:18:12.114Z,20.40
2022-12-18T03:20:42.566Z,24.20
2022-12-18T03:23:13.967Z,27.20
2022-12-18T03:25:43.752Z,27.20
2022-12-18T03:28:15.925Z,28.80
2022-12-18T03:30:46.039Z,20.60
2022-12-18T03:33:19.040Z,21.50
2022-12-18T03:35:46.819Z,25.20
2022-12-18T03:38:14.441Z,24.60
2022-12-18T03:40:51.950Z,17.60
2022-12-18T03:43:29.169Z,15.60
2022-12-18T03:46:03.790Z,14.80
2022-12-18T03:48:38.627Z,12.50
2022-12-18T03:51:09.159Z,13.50
2022-12-18T03:53:43.377Z,12.50
2022-12-18T03:56:12.743Z,8.70
2022-12-18T03:58:43.047Z,6.60
2022-12-18T04:01:13.512Z,4.20
2022-12-18T04:03:42.471Z,9.20
2022-12-18T04:06:11.274Z,8.70
2022-12-18T04:08:39.598Z,11.80
2022-12-18T04:11:06.981Z,14.20
2022-12-18T04:13:37.456Z,12.40
2022-12-18T04:16:07.217Z,12.30
2022-12-18T04:18:34.245Z,13.50
2022-12-18T04:21:01.556Z,14.40
2022-12-18T04:23:29.315Z,16.40
2022-12-18T04:25:56.643Z,13.70
2022-12-18T04:28:23.587Z,15.50
2022-12-18T04:30:51.331Z,16.00
2022-12-18T04:33:19.993Z,13.30
2022-12-18T04:35:47.594Z,12.30
2022-12-18T04:38:14.489Z,9.70
2022-12-18T04:40:41.711Z,11.10
2022-12-18T04:43:08.860Z,14.20
2022-12-18T04:45:36.475Z,12.30
2022-12-18T04:48:04.501Z,13.60
2022-12-18T04:50:33.678Z,17.90
2022-12-18T04:53:00.681Z,17.50
2022-12-18T04:55:28.359Z,16.90
2022-12-18T04:57:55.228Z,8.20
2022-12-18T05:00:22.839Z,9.30
2022-12-18T05:02:50.038Z,11.00
2022-12-18T05:05:17.556Z,13.00
2022-12-18T05:07:45.802Z,9.20
2022-12-18T05:10:13.396Z,6.70
2022-12-18T05:12:58.881Z,1.90
2022-12-18T05:15:29.171Z,2.80
2022-12-18T05:17:57.244Z,1.90
2022-12-18T05:20:24.965Z,1.00
2022-12-18T05:22:53.624Z,2.70
2022-12-18T05:25:21.571Z,1.20
2022-12-18T05:27:48.607Z,5.80
2022-12-18T05:30:16.469Z,7.80
2022-12-18T05:32:44.088Z,8.10
2022-12-18T05:35:12.201Z,4.40
2022-12-18T05:37:43.019Z,3.60
2022-12-18T05:40:13.211Z,1.00
2022-12-18T05:42:40.568Z,1.40
2022-12-18T05:45:08.383Z,6.00
2022-12-18T05:47:35.568Z,6.60
2022-12-18T05:50:02.587Z,6.20
2022-12-18T05:52:29.822Z,8.00
2022-12-18T05:54:56.667Z,9.70
2022-12-18T05:57:25.640Z,12.40
2022-12-18T05:59:52.824Z,11.80
2022-12-18T06:02:22.344Z,11.60
2022-12-18T06:04:49.535Z,7.20
2022-12-18T06:07:16.821Z,2.60
2022-12-18T06:09:43.690Z,3.70
2022-12-18T06:12:11.986Z,3.70
2022-12-18T06:14:40.807Z,7.80
2022-12-18T06:17:07.675Z,6.00
2022-12-18T06:19:34.721Z,6.60
2022-12-18T06:22:01.906Z,6.40
2022-12-18T06:24:28.901Z,5.20
2022-12-18T06:26:56.480Z,3.90
2022-12-18T06:29:23.540Z,7.00
2022-12-18T06:31:52.219Z,5.10
2022-12-18T06:34:19.153Z,12.40
2022-12-18T06:36:46.455Z,7.10
2022-12-18T06:39:13.459Z,8.90
2022-12-18T06:41:40.732Z,8.80
2022-12-18T06:44:07.759Z,9.50
2022-12-18T06:46:35.022Z,11.10
2022-12-18T06:49:03.304Z,8.90
2022-12-18T06:51:30.718Z,5.50
2022-12-18T06:53:57.625Z,6.50
2022-12-18T06:56:24.898Z,6.60
2022-12-18T06:58:51.918Z,7.50
2022-12-18T07:01:19.328Z,4.00
2022-12-18T07:03:46.496Z,5.10
2022-12-18T07:06:18.543Z,5.40
2022-12-18T07:08:45.731Z,1.00
2022-12-18T07:11:13.391Z,1.00
2022-12-18T07:13:40.675Z,1.00
2022-12-18T07:16:17.114Z,1.00
2022-12-18T07:18:48.047Z,1.00
2022-12-18T07:21:18.612Z,1.00
2022-12-18T07:23:48.710Z,1.00
2022-12-18T07:26:18.035Z,1.00
2022-12-18T07:28:44.952Z,1.00
2022-12-18T07:31:14.307Z,1.40
2022-12-18T07:33:41.980Z,2.10
2022-12-18T07:36:11.989Z,2.90
2022-12-18T07:38:40.885Z,3.10
2022-12-18T07:41:09.614Z,1.00
2022-12-18T07:43:37.241Z,1.00
2022-12-18T07:46:06.544Z,1.00
2022-12-18T07:48:33.517Z,1.00
2022-12-18T07:51:02.550Z,1.00
2022-12-18T07:53:29.872Z,1.00
2022-12-18T07:56:25.619Z,1.00
2022-12-18T07:58:49.634Z,1.00
2022-12-18T08:01:16.733Z,1.00
2022-12-18T08:03:44.271Z,1.00
2022-12-18T08:06:11.869Z,1.00
2022-12-18T08:08:38.842Z,1.00
2022-12-18T08:11:07.531Z,1.00
2022-12-18T08:13:34.461Z,1.00
2022-12-18T08:16:03.805Z,1.00
2022-12-18T08:18:32.902Z,1.00
2022-12-18T08:21:09.550Z,1.00
2022-12-18T08:23:42.280Z,1.00
2022-12-18T08:26:12.016Z,1.00
2022-12-18T08:28:39.459Z,1.00
2022-12-18T08:31:06.882Z,1.00
2022-12-18T08:33:35.067Z,1.00
2022-12-18T08:36:03.484Z,1.00
2022-12-18T08:38:30.524Z,1.00
2022-12-18T08:41:00.708Z,1.00
2022-12-18T08:43:47.700Z,1.00
2022-12-18T08:46:15.049Z,1.00
2022-12-18T08:48:42.363Z,1.00
2022-12-18T08:51:10.944Z,1.00
2022-12-18T08:53:38.917Z,1.00
2022-12-18T08:56:07.371Z,1.00
2022-12-18T08:58:35.673Z,1.00
2022-12-18T09:01:03.723Z,1.00
2022-12-18T09:03:30.788Z,1.00
2022-12-18T09:05:58.129Z,1.00
2022-12-18T09:08:25.081Z,1.00
2022-12-18T09:10:52.251Z,1.00
2022-12-18T09:13:19.619Z,1.00
2022-12-18T09:15:50.708Z,1.00
2022-12-18T09:18:19.647Z,1.00
2022-12-18T09:20:47.368Z,1.00
2022-12-18T09:23:14.611Z,1.00
2022-12-18T09:25:41.989Z,1.00
2022-12-18T09:28:13.847Z,1.00
2022-12-18T09:30:41.894Z,1.00
2022-12-18T09:33:10.177Z,1.00
2022-12-18T09:35:38.029Z,1.00
2022-12-18T09:38:05.021Z,1.00
2022-12-18T09:40:36.775Z,1.00
2022-12-18T09:43:08.191Z,1.00
2022-12-18T09:45:43.540Z,1.00
2022-12-18T09:48:19.806Z,1.00
2022-12-18T09:50:48.703Z,1.00
2022-12-18T09:53:20.412Z,1.00
2022-12-18T09:55:48.689Z,1.00
2022-12-18T09:58:21.645Z,1.00
2022-12-18T10:00:48.868Z,1.00
2022-12-18T10:03:17.274Z,1.00
2022-12-18T10:05:56.893Z,1.00
2022-12-18T10:08:29.546Z,1.00
2022-12-18T10:11:03.098Z,1.00
2022-12-18T10:13:36.062Z,1.00
2022-12-18T10:16:15.108Z,1.00
2022-12-18T10:19:12.507Z,1.00
2022-12-18T10:21:45.734Z,1.00
2022-12-18T10:24:22.233Z,1.00
2022-12-18T10:26:49.341Z,1.00
2022-12-18T10:29:18.076Z,1.00
2022-12-18T10:31:45.404Z,1.00
2022-12-18T10:34:14.283Z,1.00
2022-12-18T10:36:41.595Z,1.00
2022-12-18T10:39:20.241Z,1.00
2022-12-18T10:41:47.253Z,1.00
2022-12-18T10:44:19.382Z,1.00
2022-12-18T10:46:48.136Z,1.00
2022-12-18T10:49:28.251Z,1.00
2022-12-18T10:52:08.206Z,1.00
2022-12-18T10:54:37.077Z,1.00
2022-12-18T10:57:17.866Z,1.00
2022-12-18T10:59:52.919Z,1.00
2022-12-18T11:02:29.355Z,1.00
2022-12-18T11:04:59.623Z,1.00
2022-12-18T11:07:29.065Z,1.00
2022-12-18T11:10:02.080Z,1.00
2022-12-18T11:12:30.237Z,1.00
2022-12-18T11:15:02.149Z,1.00
2022-12-18T11:17:35.693Z,1.00
2022-12-18T11:20:08.336Z,1.00
2022-12-18T11:22:37.476Z,1.00
2022-12-18T11:25:32.537Z,1.00
2022-12-18T11:27:58.235Z,1.00
2022-12-18T11:30:27.773Z,1.00
2022-12-18T11:33:00.159Z,1.00
2022-12-18T11:35:38.162Z,1.00
2022-12-18T11:38:12.896Z,1.00
2022-12-18T11:40:43.323Z,1.00
2022-12-18T11:43:15.258Z,1.00
2022-12-18T11:45:48.117Z,1.00
2022-12-18T11:48:19.228Z,1.00
2022-12-18T11:50:51.581Z,1.00
2022-12-18T11:53:19.086Z,1.00
2022-12-18T11:55:57.809Z,1.00
2022-12-18T11:58:39.591Z,1.00
2022-12-18T12:01:17.731Z,1.00
2022-12-18T12:04:09.474Z,1.00
2022-12-18T12:06:46.716Z,1.00
2022-12-18T12:09:23.261Z,1.00
2022-12-18T12:11:59.919Z,1.00
2022-12-18T12:14:41.093Z,99.90
2022-12-18T12:17:15.320Z,99.90
2022-12-18T12:19:49.285Z,99.90
2022-12-18T12:22:29.151Z,99.90
2022-12-18T12:25:09.540Z,99.90
2022-12-18T12:27:45.250Z,99.90
2022-12-18T12:30:20.314Z,1.00
2022-12-18T12:33:07.513Z,1.00
2022-12-18T12:35:45.196Z,1.00
2022-12-18T12:38:17.356Z,1.00
2022-12-18T12:40:53.848Z,1.00
2022-12-18T12:43:29.870Z,1.00
2022-12-18T12:46:01.310Z,1.00
2022-12-18T12:48:39.074Z,1.00
2022-12-18T12:51:12.832Z,1.00
2022-12-18T12:53:42.677Z,1.00
2022-12-18T12:56:12.573Z,1.00
2022-12-18T12:58:48.232Z,1.00
2022-12-18T13:01:26.286Z,1.00
2022-12-18T13:04:08.052Z,1.00
2022-12-18T13:06:44.992Z,1.00
2022-12-18T13:09:14.755Z,1.00
2022-12-18T13:12:02.264Z,1.00
2022-12-18T13:14:32.160Z,1.00
2022-12-18T13:17:38.657Z,1.00
2022-12-18T13:20:11.956Z,1.00
2022-12-18T13:22:43.546Z,1.00
2022-12-18T13:25:35.701Z,1.00
2022-12-18T13:28:12.810Z,1.00
2022-12-18T13:30:57.255Z,1.00
2022-12-18T13:36:36.146Z,1.00
2022-12-18T13:39:35.980Z,1.00
2022-12-18T13:42:58.228Z,1.00
2022-12-18T13:45:46.086Z,1.00
2022-12-18T13:48:20.318Z,1.00
2022-12-18T13:50:53.412Z,1.00
2022-12-18T13:53:24.416Z,1.00
2022-12-18T13:55:53.044Z,1.00
2022-12-18T13:58:21.894Z,1.00
2022-12-18T14:00:49.627Z,1.00
2022-12-18T14:03:23.102Z,1.00
2022-12-18T14:05:56.688Z,1.00
2022-12-18T14:08:25.989Z,1.00
2022-12-18T14:10:54.066Z,1.00
2022-12-18T14:13:28.120Z,1.00
2022-12-18T14:15:56.686Z,1.00
2022-12-18T14:18:27.063Z,1.00
2022-12-18T14:20:57.495Z,1.00
2022-12-18T14:23:33.129Z,1.00
2022-12-18T14:26:05.336Z,1.00
2022-12-18T14:28:44.128Z,1.00
2022-12-18T14:31:19.380Z,1.00
2022-12-18T14:33:46.644Z,1.00
2022-12-18T14:36:17.882Z,1.00
2022-12-18T14:38:48.906Z,1.00
2022-12-18T14:41:20.419Z,1.00
2022-12-18T14:43:49.970Z,1.00
2022-12-18T14:46:33.875Z,1.00
2022-12-18T14:49:03.178Z,1.00
2022-12-18T14:51:31.859Z,1.00
2022-12-18T14:54:01.790Z,1.00
2022-12-18T14:56:30.726Z,1.00
2022-12-18T14:59:01.634Z,1.00
2022-12-18T15:01:31.660Z,1.00
2022-12-18T15:04:00.919Z,1.00
2022-12-18T15:06:31.397Z,1.00
2022-12-18T15:08:59.789Z,1.00
2022-12-18T15:11:35.688Z,1.00
2022-12-18T15:14:41.408Z,1.00
2022-12-18T15:17:18.454Z,1.00
2022-12-18T15:19:46.573Z,1.00
2022-12-18T15:22:27.458Z,1.00
2022-12-18T15:24:55.600Z,1.00
2022-12-18T15:27:26.117Z,1.00
2022-12-18T15:30:18.953Z,1.00
2022-12-18T15:32:46.147Z,1.00
2022-12-18T15:35:16.999Z,1.00
2022-12-18T15:37:44.153Z,1.00
2022-12-18T15:40:14.870Z,1.00
2022-12-18T15:43:04.192Z,1.00
2022-12-18T15:45:32.432Z,1.00
2022-12-18T15:47:59.522Z,1.00
2022-12-18T15:50:26.831Z,1.00
2022-12-18T15:52:56.605Z,1.00
2022-12-18T15:55:43.902Z,1.00
2022-12-18T15:58:12.807Z,1.00
2022-12-18T16:00:43.376Z,1.00
2022-12-18T16:03:12.601Z,1.00
2022-12-18T16:05:39.685Z,1.00
2022-12-18T16:08:06.571Z,1.00
2022-12-18T16:10:33.557Z,1.00
2022-12-18T16:13:00.746Z,1.00
2022-12-18T16:15:27.655Z,1.00
2022-12-18T16:17:56.344Z,1.00
2022-12-18T16:20:23.876Z,1.00
2022-12-18T16:22:50.973Z,1.00
2022-12-18T16:25:24.201Z,1.00
2022-12-18T16:27:52.319Z,1.00
2022-12-18T16:30:21.164Z,1.00
2022-12-18T16:32:48.849Z,1.00
2022-12-18T16:35:17.784Z,1.00
2022-12-18T16:37:45.530Z,1.00
2022-12-18T16:40:14.531Z,1.00
2022-12-18T16:42:43.231Z,1.00
2022-12-18T16:45:12.450Z,1.00
2022-12-18T16:47:39.654Z,1.00
2022-12-18T16:50:07.699Z,1.00
2022-12-18T16:52:38.788Z,1.00
2022-12-18T16:55:06.299Z,1.00
2022-12-18T16:57:33.925Z,1.00
2022-12-18T17:00:05.279Z,1.00
2022-12-18T17:02:34.827Z,1.00
2022-12-18T17:05:01.959Z,1.00
2022-12-18T17:07:29.274Z,1.00
2022-12-18T17:09:57.611Z,1.00
2022-12-18T17:12:25.252Z,1.00
2022-12-18T17:14:52.158Z,1.00
2022-12-18T17:17:21.894Z,1.00
2022-12-18T17:19:50.032Z,1.00
2022-12-18T17:22:17.196Z,1.00
2022-12-18T17:24:44.039Z,1.00
2022-12-18T17:27:13.365Z,1.00
2022-12-18T17:29:46.746Z,1.00
2022-12-18T17:32:15.422Z,1.00
2022-12-18T17:34:42.269Z,1.00
2022-12-18T17:37:09.749Z,1.00
2022-12-18T17:39:36.790Z,1.00
2022-12-18T17:42:03.987Z,1.00
2022-12-18T17:44:34.344Z,1.00
2022-12-18T17:47:01.786Z,1.00
2022-12-18T17:49:28.893Z,1.00
2022-12-18T17:51:56.134Z,1.00
2022-12-18T17:54:22.971Z,1.00
2022-12-18T17:56:50.395Z,1.00
2022-12-18T17:59:17.366Z,1.00
2022-12-18T18:01:46.063Z,1.00
2022-12-18T18:04:13.883Z,1.00
2022-12-18T18:06:41.465Z,1.00
2022-12-18T18:09:15.118Z,1.00
2022-12-18T18:12:02.816Z,1.00
2022-12-18T18:14:30.236Z,1.00
2022-12-18T18:17:04.211Z,1.00
2022-12-18T18:19:32.790Z,1.00
2022-12-18T18:22:00.061Z,1.00
2022-12-18T18:24:27.188Z,1.00
2022-12-18T18:26:55.753Z,1.00
2022-12-18T18:29:25.811Z,1.00
2022-12-18T18:31:54.418Z,1.00
2022-12-18T18:34:24.896Z,1.00
2022-12-18T18:36:52.788Z,1.00
2022-12-18T18:39:19.915Z,1.00
2022-12-18T18:41:48.361Z,1.00
2022-12-18T18:44:15.948Z,1.00
2022-12-18T18:46:43.360Z,1.00
2022-12-18T18:49:11.379Z,1.00
2022-12-18T18:51:40.150Z,1.00
2022-12-18T18:54:07.104Z,1.00
2022-12-18T18:59:29.193Z,1.00
2022-12-18T19:01:59.881Z,1.00
2022-12-18T19:04:30.985Z,1.00
2022-12-18T19:06:59.651Z,1.00
2022-12-18T19:09:27.848Z,1.00
2022-12-18T19:12:14.305Z,1.00
2022-12-18T19:14:41.300Z,1.00
2022-12-18T19:17:08.690Z,1.00
2022-12-18T19:19:35.843Z,1.00
2022-12-18T19:22:04.329Z,1.00
2022-12-18T19:24:31.445Z,1.00
2022-12-18T19:26:58.410Z,1.00
2022-12-18T19:29:25.491Z,1.00
2022-12-18T19:31:52.965Z,1.00
2022-12-18T19:34:20.288Z,1.00
2022-12-18T19:36:47.665Z,1.00
2022-12-18T19:39:17.846Z,1.00
2022-12-18T19:41:46.520Z,1.00
2022-12-18T19:44:15.897Z,1.00
2022-12-18T19:46:43.333Z,1.00
2022-12-18T19:49:10.653Z,1.00
2022-12-18T19:51:38.390Z,1.00
2022-12-18T19:54:06.121Z,1.00
2022-12-18T19:56:35.564Z,1.00
2022-12-18T19:59:03.989Z,1.00
2022-12-18T20:01:32.033Z,1.00
2022-12-18T20:04:00.468Z,1.00
2022-12-18T20:06:30.050Z,1.00
2022-12-18T20:09:00.426Z,1.00
2022-12-18T20:11:29.055Z,1.00
2022-12-18T20:13:57.937Z,1.00
2022-12-18T20:16:24.924Z,1.00
2022-12-18T20:18:55.463Z,1.00
2022-12-18T20:21:23.165Z,1.00
2022-12-18T20:23:50.671Z,1.00
2022-12-18T20:26:17.689Z,1.00
2022-12-18T20:28:45.050Z,1.00
2022-12-18T20:31:14.125Z,1.00
2022-12-18T20:33:42.910Z,1.00
2022-12-18T20:36:14.248Z,1.00
2022-12-18T20:38:43.051Z,1.00
2022-12-18T20:41:15.622Z,1.00
2022-12-18T20:43:42.998Z,1.00
2022-12-18T20:46:18.333Z,1.00
2022-12-18T20:48:46.048Z,1.00
2022-12-18T20:51:14.846Z,1.00
2022-12-18T20:53:42.650Z,1.00
2022-12-18T20:56:11.577Z,1.00
2022-12-18T20:58:39.184Z,1.00
2022-12-18T21:01:07.828Z,1.00
2022-12-18T21:03:36.526Z,1.00
2022-12-18T21:06:03.839Z,1.00
2022-12-18T21:08:31.116Z,1.00
2022-12-18T21:11:31.981Z,1.00
2022-12-18T21:13:59.182Z,1.00
2022-12-18T21:16:26.257Z,1.00
2022-12-18T21:18:54.948Z,1.00
2022-12-18T21:21:26.647Z,1.00
2022-12-18T21:23:55.277Z,1.00
2022-12-18T21:26:24.206Z,1.00
2022-12-18T21:28:55.685Z,1.00
2022-12-18T21:31:23.524Z,1.00
2022-12-18T21:33:51.892Z,1.00
2022-12-18T21:36:22.685Z,1.00
2022-12-18T21:38:50.462Z,1.00
2022-12-18T21:41:41.704Z,1.00
2022-12-18T21:44:12.797Z,1.00
2022-12-18T21:46:42.527Z,1.00
2022-12-18T21:49:10.532Z,1.00
2022-12-18T21:51:39.731Z,1.00
2022-12-18T21:54:06.944Z,1.00
2022-12-18T21:56:47.745Z,1.00
2022-12-18T21:59:16.679Z,1.00
2022-12-18T22:01:43.984Z,1.00
2022-12-18T22:04:11.439Z,1.00
2022-12-18T22:06:39.938Z,1.00
2022-12-18T22:09:07.276Z,1.00
2022-12-18T22:11:34.494Z,1.00
2022-12-18T22:14:01.553Z,1.00
2022-12-18T22:16:28.727Z,1.00
2022-12-18T22:18:56.829Z,1.00
2022-12-18T22:21:29.264Z,1.00
2022-12-18T22:24:00.018Z,1.00
2022-12-18T22:26:28.856Z,1.00
2022-12-18T22:29:15.018Z,1.00
2022-12-18T22:31:42.158Z,1.00
2022-12-18T22:34:09.841Z,1.00
2022-12-18T22:36:38.417Z,1.00
2022-12-18T22:39:07.700Z,1.00
2022-12-18T22:41:34.600Z,1.00
2022-12-18T22:44:01.904Z,1.00
2022-12-18T22:46:31.561Z,1.00
2022-12-18T22:48:59.031Z,1.00
2022-12-18T22:51:26.057Z,1.00
2022-12-18T22:53:53.306Z,1.00
2022-12-18T22:56:23.529Z,1.00
2022-12-18T22:58:51.776Z,1.00
2022-12-18T23:01:21.006Z,1.00
2022-12-18T23:03:49.990Z,1.00
2022-12-18T23:06:17.224Z,1.00
2022-12-18T23:08:44.742Z,1.00
2022-12-18T23:11:12.942Z,1.00
2022-12-18T23:13:41.967Z,1.00
2022-12-18T23:16:11.394Z,1.00
2022-12-18T23:18:39.070Z,1.00
2022-12-18T23:21:07.474Z,1.00
2022-12-18T23:23:36.983Z,1.00
2022-12-18T23:26:05.750Z,1.00
2022-12-18T23:28:34.042Z,1.00
2022-12-18T23:31:12.745Z,1.00
2022-12-18T23:33:42.392Z,1.00
2022-12-18T23:36:10.454Z,1.00
2022-12-18T23:38:39.368Z,1.00
2022-12-18T23:41:10.824Z,1.00
2022-12-18T23:43:38.670Z,1.00
2022-12-18T23:46:12.513Z,1.00
2022-12-18T23:48:40.220Z,1.00
2022-12-18T23:51:08.088Z,1.00
2022-12-18T23:53:35.480Z,1.00
2022-12-18T23:56:03.382Z,1.00
2022-12-18T23:58:31.259Z,1.00
